Time;durP1;ratioP1;P1;durP2;ratioP2;P2;SDS_P1;SDS_P2;PMS_P1;PMS_P2;Temp;Humidity;BMP_temperature;BMP_pressure;BME280_temperature;BME280_humidity;BME280_pressure;Samples;Min_cycle;Max_cycle;Signal;HPM_P1;HPM_P2
2022/03/09 00:00:22;;;;;;;9.80;7.47;;;;;;;;;;4994964;28;20232;-54
2022/03/09 00:02:48;;;;;;;11.63;7.50;;;;;;;;;;4997522;28;20224;-54
2022/03/09 00:05:14;;;;;;;11.40;8.03;;;;;;;;;;4997165;28;20208;-54
2022/03/09 00:07:40;;;;;;;10.00;7.33;;;;;;;;;;4992147;28;20197;-54
2022/03/09 00:10:06;;;;;;;9.63;7.23;;;;;;;;;;4989509;28;20221;-54
2022/03/09 00:12:33;;;;;;;11.03;7.60;;;;;;;;;;4994869;28;20185;-54
2022/03/09 00:14:58;;;;;;;9.30;7.83;;;;;;;;;;4990108;28;20201;-54
2022/03/09 00:17:24;;;;;;;11.67;8.10;;;;;;;;;;4991914;28;20224;-54
2022/03/09 00:19:50;;;;;;;9.30;7.57;;;;;;;;;;4993613;28;20212;-55
2022/03/09 00:22:16;;;;;;;11.23;7.40;;;;;;;;;;4991708;28;20201;-54
2022/03/09 00:24:42;;;;;;;9.97;7.60;;;;;;;;;;4987440;28;20243;-54
2022/03/09 00:27:08;;;;;;;11.43;8.10;;;;;;;;;;4989790;28;20197;-54
2022/03/09 00:29:34;;;;;;;12.63;8.03;;;;;;;;;;4994057;28;20221;-55
2022/03/09 00:32:00;;;;;;;11.63;8.03;;;;;;;;;;4978346;28;21151;-54
2022/03/09 00:34:26;;;;;;;9.27;7.47;;;;;;;;;;4990392;28;20295;-54
2022/03/09 00:36:52;;;;;;;10.07;7.83;;;;;;;;;;4986718;28;20188;-54
2022/03/09 00:39:18;;;;;;;9.77;7.23;;;;;;;;;;4978056;28;20193;-54
2022/03/09 00:41:44;;;;;;;8.30;7.07;;;;;;;;;;4981768;28;20227;-54
2022/03/09 00:44:10;;;;;;;12.07;8.23;;;;;;;;;;5000851;28;20205;-54
2022/03/09 00:46:36;;;;;;;7.70;6.90;;;;;;;;;;4995900;28;20197;-54
2022/03/09 00:49:02;;;;;;;10.33;7.57;;;;;;;;;;5005715;28;20221;-54
2022/03/09 00:51:28;;;;;;;11.80;8.50;;;;;;;;;;5008169;28;20826;-54
2022/03/09 00:53:54;;;;;;;8.60;7.37;;;;;;;;;;5000375;28;20201;-54
2022/03/09 00:56:20;;;;;;;11.27;8.13;;;;;;;;;;5002441;28;20197;-54
2022/03/09 00:58:47;;;;;;;9.23;7.67;;;;;;;;;;4993713;28;20746;-54
2022/03/09 01:01:13;;;;;;;9.57;7.80;;;;;;;;;;4998317;28;20204;-53
2022/03/09 01:03:39;;;;;;;12.70;8.13;;;;;;;;;;4994389;28;20235;-54
2022/03/09 01:06:05;;;;;;;11.10;8.33;;;;;;;;;;4995016;28;20217;-54
2022/03/09 01:08:31;;;;;;;10.27;7.70;;;;;;;;;;4999658;28;20200;-54
2022/03/09 01:10:57;;;;;;;9.37;7.80;;;;;;;;;;4993221;28;20263;-54
2022/03/09 01:13:23;;;;;;;11.37;7.80;;;;;;;;;;4997941;28;20198;-55
2022/03/09 01:15:49;;;;;;;10.13;7.60;;;;;;;;;;4993468;28;20458;-54
2022/03/09 01:18:15;;;;;;;10.30;7.73;;;;;;;;;;4995934;28;20197;-54
2022/03/09 01:20:41;;;;;;;10.67;8.37;;;;;;;;;;4993532;28;20669;-54
2022/03/09 01:23:07;;;;;;;10.13;7.90;;;;;;;;;;4989603;28;20201;-54
2022/03/09 01:25:33;;;;;;;11.00;7.97;;;;;;;;;;4982770;28;20722;-54
2022/03/09 01:27:59;;;;;;;12.67;7.80;;;;;;;;;;4987076;28;20696;-54
2022/03/09 01:30:25;;;;;;;8.77;7.57;;;;;;;;;;4995672;28;20259;-54
2022/03/09 01:32:51;;;;;;;11.20;8.03;;;;;;;;;;4990423;28;20220;-54
2022/03/09 01:35:18;;;;;;;9.73;7.93;;;;;;;;;;4987450;28;20374;-54
2022/03/09 01:37:47;;;;;;;9.80;8.00;;;;;;;;;;4991860;28;20192;-55
2022/03/09 01:40:13;;;;;;;9.37;7.27;;;;;;;;;;4993567;28;20553;-54
2022/03/09 01:42:39;;;;;;;8.73;7.67;;;;;;;;;;4986653;28;20297;-54
2022/03/09 01:45:06;;;;;;;11.87;7.50;;;;;;;;;;4997153;28;20201;-54
2022/03/09 01:47:32;;;;;;;10.73;7.37;;;;;;;;;;4996102;28;20294;-54
2022/03/09 01:49:58;;;;;;;8.60;7.33;;;;;;;;;;4998585;28;20637;-54
2022/03/09 01:52:24;;;;;;;10.17;7.37;;;;;;;;;;4998918;28;20201;-54
2022/03/09 01:54:51;;;;;;;8.57;7.23;;;;;;;;;;4997359;28;20337;-53
2022/03/09 01:57:17;;;;;;;9.60;7.93;;;;;;;;;;4996910;28;20646;-54
2022/03/09 01:59:43;;;;;;;11.07;7.43;;;;;;;;;;4990361;28;20327;-54
2022/03/09 02:02:09;;;;;;;8.57;7.23;;;;;;;;;;4987744;28;20314;-54
2022/03/09 02:04:35;;;;;;;8.47;7.20;;;;;;;;;;4981949;28;20435;-54
2022/03/09 02:07:01;;;;;;;10.90;7.90;;;;;;;;;;4988244;28;20224;-54
2022/03/09 02:09:43;;;;;;;10.67;8.23;;;;;;;;;;4988081;28;20250;-54
2022/03/09 02:12:16;;;;;;;8.57;7.30;;;;;;;;;;4989471;28;20850;-54
2022/03/09 02:14:43;;;;;;;8.80;7.47;;;;;;;;;;4987285;28;20658;-55
2022/03/09 02:17:14;;;;;;;10.37;7.53;;;;;;;;;;4990359;28;20594;-54
2022/03/09 02:19:40;;;;;;;9.40;7.47;;;;;;;;;;4986071;28;22686;-54
2022/03/09 02:22:07;;;;;;;9.33;7.50;;;;;;;;;;4987530;28;20799;-54
2022/03/09 02:24:33;;;;;;;11.03;7.17;;;;;;;;;;4979930;28;20243;-54
2022/03/09 02:26:59;;;;;;;10.53;7.20;;;;;;;;;;4981896;28;20795;-54
2022/03/09 02:29:25;;;;;;;9.90;6.97;;;;;;;;;;4979694;28;22004;-54
2022/03/09 02:31:51;;;;;;;9.93;7.57;;;;;;;;;;4980382;28;20192;-54
2022/03/09 02:34:17;;;;;;;10.33;7.70;;;;;;;;;;4980984;28;20206;-54
2022/03/09 02:36:43;;;;;;;10.03;7.73;;;;;;;;;;4984469;28;20207;-54
2022/03/09 02:39:09;;;;;;;11.03;7.73;;;;;;;;;;4992449;28;20216;-53
2022/03/09 02:41:35;;;;;;;9.40;7.40;;;;;;;;;;4990730;28;20335;-53
2022/03/09 02:44:01;;;;;;;11.20;7.10;;;;;;;;;;4998118;28;20208;-54
2022/03/09 02:46:27;;;;;;;9.20;7.60;;;;;;;;;;5000409;28;20205;-54
2022/03/09 02:48:53;;;;;;;9.97;7.30;;;;;;;;;;4994426;28;20220;-54
2022/03/09 02:51:19;;;;;;;9.43;7.70;;;;;;;;;;4994032;28;20205;-54
2022/03/09 02:53:45;;;;;;;8.50;6.97;;;;;;;;;;4999085;28;20719;-54
2022/03/09 02:56:11;;;;;;;10.43;7.63;;;;;;;;;;5001472;28;20235;-54
2022/03/09 02:58:37;;;;;;;10.53;8.10;;;;;;;;;;4994707;28;20713;-54
2022/03/09 03:01:03;;;;;;;8.73;7.43;;;;;;;;;;4987090;28;20280;-54
2022/03/09 03:03:29;;;;;;;9.93;7.70;;;;;;;;;;4999554;28;20674;-54
2022/03/09 03:05:55;;;;;;;10.17;7.70;;;;;;;;;;4996557;28;20224;-54
2022/03/09 03:08:21;;;;;;;10.33;7.70;;;;;;;;;;4990334;28;20196;-54
2022/03/09 03:10:47;;;;;;;9.30;7.23;;;;;;;;;;4988460;28;20213;-54
2022/03/09 03:13:13;;;;;;;10.80;7.53;;;;;;;;;;4993691;28;20204;-54
2022/03/09 03:15:39;;;;;;;9.97;7.00;;;;;;;;;;5001857;28;20335;-54
2022/03/09 03:18:05;;;;;;;12.73;7.87;;;;;;;;;;5000483;28;20335;-54
2022/03/09 03:20:31;;;;;;;8.90;7.70;;;;;;;;;;5000813;28;20192;-54
2022/03/09 03:22:57;;;;;;;9.80;7.57;;;;;;;;;;4995835;28;20270;-53
2022/03/09 03:25:23;;;;;;;9.70;7.33;;;;;;;;;;4995735;28;20238;-54
2022/03/09 03:27:49;;;;;;;8.83;7.83;;;;;;;;;;4995031;28;20227;-54
2022/03/09 03:30:14;;;;;;;9.93;8.07;;;;;;;;;;4992490;28;20225;-52
2022/03/09 03:32:40;;;;;;;9.83;7.93;;;;;;;;;;4991131;28;20200;-54
2022/03/09 03:35:07;;;;;;;10.53;7.90;;;;;;;;;;4994864;28;20200;-54
2022/03/09 03:37:33;;;;;;;12.67;7.87;;;;;;;;;;4996604;28;20287;-54
2022/03/09 03:39:59;;;;;;;9.57;7.87;;;;;;;;;;4997781;28;20197;-53
2022/03/09 03:42:24;;;;;;;8.80;7.90;;;;;;;;;;4997606;28;20203;-54
2022/03/09 03:44:50;;;;;;;11.00;8.60;;;;;;;;;;4995342;28;20731;-54
2022/03/09 03:47:16;;;;;;;9.70;7.73;;;;;;;;;;4987121;28;20682;-54
2022/03/09 03:49:42;;;;;;;10.13;7.90;;;;;;;;;;4995433;28;20997;-54
2022/03/09 03:52:08;;;;;;;12.20;8.30;;;;;;;;;;4992049;28;20181;-54
2022/03/09 03:54:34;;;;;;;12.47;8.10;;;;;;;;;;4995675;28;20197;-54
2022/03/09 03:57:00;;;;;;;10.23;8.33;;;;;;;;;;4987484;28;21124;-54
2022/03/09 03:59:26;;;;;;;9.73;7.87;;;;;;;;;;4993103;28;20204;-54
2022/03/09 04:01:52;;;;;;;11.67;8.13;;;;;;;;;;4995691;28;20752;-54
2022/03/09 04:04:18;;;;;;;10.90;8.07;;;;;;;;;;5002160;28;20576;-54
2022/03/09 04:06:44;;;;;;;10.03;8.23;;;;;;;;;;4985020;28;20712;-54
2022/03/09 04:09:10;;;;;;;10.17;7.57;;;;;;;;;;5002387;28;20692;-54
2022/03/09 04:11:36;;;;;;;10.93;8.00;;;;;;;;;;5010483;28;20197;-54
2022/03/09 04:14:02;;;;;;;10.50;7.90;;;;;;;;;;5009990;28;20201;-54
2022/03/09 04:16:27;;;;;;;15.27;7.57;;;;;;;;;;5000674;28;20207;-54
2022/03/09 04:18:53;;;;;;;15.87;8.80;;;;;;;;;;5004655;28;20206;-56
2022/03/09 04:21:19;;;;;;;20.13;8.20;;;;;;;;;;5006834;28;20205;-53
2022/03/09 04:23:45;;;;;;;15.17;8.00;;;;;;;;;;4999636;28;20265;-54
2022/03/09 04:26:11;;;;;;;19.23;8.27;;;;;;;;;;4995062;28;20451;-54
2022/03/09 04:28:37;;;;;;;18.80;8.13;;;;;;;;;;4999921;28;20193;-54
2022/03/09 04:31:03;;;;;;;13.77;8.57;;;;;;;;;;4993933;28;20204;-54
2022/03/09 04:33:29;;;;;;;17.53;8.50;;;;;;;;;;4988819;28;20195;-54
2022/03/09 04:35:55;;;;;;;11.63;7.43;;;;;;;;;;4981140;28;20247;-54
2022/03/09 04:38:21;;;;;;;12.20;7.97;;;;;;;;;;4991857;28;20404;-54
2022/03/09 04:40:47;;;;;;;17.43;7.43;;;;;;;;;;4997597;28;20230;-54
2022/03/09 04:43:13;;;;;;;11.17;7.97;;;;;;;;;;4992034;28;20200;-54
2022/03/09 04:45:39;;;;;;;15.00;8.50;;;;;;;;;;4988779;28;20229;-54
2022/03/09 04:48:05;;;;;;;17.40;7.93;;;;;;;;;;4988930;28;20196;-54
2022/03/09 04:50:31;;;;;;;13.47;7.20;;;;;;;;;;4992864;28;20220;-54
2022/03/09 04:52:58;;;;;;;13.47;8.37;;;;;;;;;;4989299;28;20196;-54
2022/03/09 04:55:24;;;;;;;14.67;8.00;;;;;;;;;;4994345;28;20204;-53
2022/03/09 04:57:50;;;;;;;13.17;8.07;;;;;;;;;;4990554;28;20204;-54
2022/03/09 05:00:17;;;;;;;10.07;7.90;;;;;;;;;;4986160;28;20208;-54
2022/03/09 05:02:43;;;;;;;13.13;7.97;;;;;;;;;;4992161;28;20283;-54
2022/03/09 05:05:09;;;;;;;9.07;7.53;;;;;;;;;;4990188;28;20231;-54
2022/03/09 05:07:38;;;;;;;9.13;7.57;;;;;;;;;;5003974;28;20200;-54
2022/03/09 05:10:05;;;;;;;10.57;8.00;;;;;;;;;;4994877;28;20228;-54
2022/03/09 05:12:31;;;;;;;11.33;7.80;;;;;;;;;;4997341;28;20200;-54
2022/03/09 05:14:57;;;;;;;12.17;8.00;;;;;;;;;;4998245;28;20193;-53
2022/03/09 05:17:23;;;;;;;13.90;7.00;;;;;;;;;;4995562;28;20274;-54
2022/03/09 05:19:49;;;;;;;10.67;8.10;;;;;;;;;;5002171;28;20388;-54
2022/03/09 05:22:15;;;;;;;11.67;7.53;;;;;;;;;;4995709;28;20670;-54
2022/03/09 05:24:41;;;;;;;22.87;8.10;;;;;;;;;;4986954;28;20282;-54
2022/03/09 05:27:07;;;;;;;20.23;8.30;;;;;;;;;;4980626;28;20223;-54
2022/03/09 05:29:33;;;;;;;17.67;7.73;;;;;;;;;;4985977;28;20209;-53
2022/03/09 05:31:59;;;;;;;17.93;7.40;;;;;;;;;;4977563;28;20192;-54
2022/03/09 05:34:25;;;;;;;11.33;7.60;;;;;;;;;;4995973;28;20196;-54
2022/03/09 05:36:51;;;;;;;14.27;7.70;;;;;;;;;;4992879;28;20196;-54
2022/03/09 05:39:17;;;;;;;12.50;7.20;;;;;;;;;;4994875;28;20193;-54
2022/03/09 05:41:43;;;;;;;13.80;7.17;;;;;;;;;;4997217;28;20200;-54
2022/03/09 05:44:08;;;;;;;10.13;6.40;;;;;;;;;;4998531;28;20188;-54
2022/03/09 05:46:34;;;;;;;8.57;7.23;;;;;;;;;;4990770;28;21410;-54
2022/03/09 05:49:01;;;;;;;11.63;6.90;;;;;;;;;;4990022;28;20213;-53
2022/03/09 05:51:27;;;;;;;11.47;7.20;;;;;;;;;;4996802;28;21144;-54
2022/03/09 05:53:53;;;;;;;16.07;8.20;;;;;;;;;;4994506;28;20196;-54
2022/03/09 05:56:19;;;;;;;13.53;7.73;;;;;;;;;;4998968;28;21349;-54
2022/03/09 05:58:45;;;;;;;11.70;6.70;;;;;;;;;;4997034;28;20193;-54
2022/03/09 06:01:11;;;;;;;15.53;7.17;;;;;;;;;;4996187;28;20476;-54
2022/03/09 06:03:37;;;;;;;10.07;7.30;;;;;;;;;;5006548;28;20299;-54
2022/03/09 06:06:03;;;;;;;9.93;6.80;;;;;;;;;;4983352;28;20228;-54
2022/03/09 06:08:29;;;;;;;11.30;7.47;;;;;;;;;;4993726;28;20218;-54
2022/03/09 06:10:55;;;;;;;10.73;6.97;;;;;;;;;;5003307;28;20287;-55
2022/03/09 06:13:21;;;;;;;14.80;8.07;;;;;;;;;;4999663;28;20201;-53
2022/03/09 06:15:49;;;;;;;10.60;6.90;;;;;;;;;;4995233;28;20200;-53
2022/03/09 06:18:15;;;;;;;11.20;7.60;;;;;;;;;;4995507;28;20189;-53
2022/03/09 06:20:41;;;;;;;11.37;6.60;;;;;;;;;;5004493;28;20211;-53
2022/03/09 06:23:07;;;;;;;13.73;6.40;;;;;;;;;;5001433;28;20197;-53
2022/03/09 06:25:36;;;;;;;10.77;6.80;;;;;;;;;;4999849;28;20259;-53
2022/03/09 06:28:02;;;;;;;10.77;7.50;;;;;;;;;;4994567;28;20255;-54
2022/03/09 06:30:28;;;;;;;13.67;6.87;;;;;;;;;;5003761;28;20651;-53
2022/03/09 06:32:54;;;;;;;13.80;6.90;;;;;;;;;;4997597;28;20235;-55
2022/03/09 06:35:20;;;;;;;11.50;6.97;;;;;;;;;;5001499;28;20276;-54
2022/03/09 06:37:46;;;;;;;10.73;7.53;;;;;;;;;;4998025;28;20292;-54
2022/03/09 06:40:12;;;;;;;9.70;7.20;;;;;;;;;;5005692;28;20212;-54
2022/03/09 06:42:38;;;;;;;10.20;7.47;;;;;;;;;;5004414;28;20592;-54
2022/03/09 06:45:04;;;;;;;17.03;7.07;;;;;;;;;;5004566;28;20196;-54
2022/03/09 06:47:32;;;;;;;10.17;6.67;;;;;;;;;;4999970;28;20201;-53
2022/03/09 06:49:58;;;;;;;7.37;6.20;;;;;;;;;;4998503;28;20639;-54
2022/03/09 06:52:24;;;;;;;12.73;7.43;;;;;;;;;;5002824;28;20569;-53
2022/03/09 06:54:50;;;;;;;11.73;7.03;;;;;;;;;;4998549;28;20203;-54
2022/03/09 06:57:16;;;;;;;10.07;7.10;;;;;;;;;;5003963;28;20678;-54
2022/03/09 06:59:44;;;;;;;9.40;7.57;;;;;;;;;;5004651;28;20209;-54
2022/03/09 07:02:10;;;;;;;10.03;7.47;;;;;;;;;;5006924;28;20197;-54
2022/03/09 07:04:36;;;;;;;9.57;7.10;;;;;;;;;;5008247;28;20251;-54
2022/03/09 07:07:02;;;;;;;10.73;7.20;;;;;;;;;;5007051;28;20197;-54
2022/03/09 07:09:28;;;;;;;9.87;7.27;;;;;;;;;;4997569;28;20217;-54
2022/03/09 07:11:54;;;;;;;9.87;7.03;;;;;;;;;;5002404;28;20839;-54
2022/03/09 07:14:20;;;;;;;14.13;7.20;;;;;;;;;;5007698;28;20486;-54
2022/03/09 07:16:46;;;;;;;9.77;7.07;;;;;;;;;;5000732;28;20666;-54
2022/03/09 07:19:13;;;;;;;12.70;7.53;;;;;;;;;;5010232;28;20208;-54
2022/03/09 07:21:39;;;;;;;14.47;7.03;;;;;;;;;;5006095;28;20943;-54
2022/03/09 07:24:05;;;;;;;9.77;7.60;;;;;;;;;;5009904;28;20548;-54
2022/03/09 07:26:31;;;;;;;13.23;6.83;;;;;;;;;;5012911;28;20226;-54
2022/03/09 07:28:57;;;;;;;11.13;6.87;;;;;;;;;;5009264;28;20220;-54
2022/03/09 07:31:22;;;;;;;9.53;6.70;;;;;;;;;;5005652;28;20196;-54
2022/03/09 07:33:48;;;;;;;9.17;6.93;;;;;;;;;;5009846;28;20777;-57
2022/03/09 07:36:14;;;;;;;12.27;7.10;;;;;;;;;;5007894;28;20533;-54
2022/03/09 07:38:40;;;;;;;12.17;7.13;;;;;;;;;;5000774;28;20328;-54
2022/03/09 07:41:06;;;;;;;9.37;7.00;;;;;;;;;;5002912;28;20416;-54
2022/03/09 07:43:32;;;;;;;10.13;7.00;;;;;;;;;;5007809;28;20222;-54
2022/03/09 07:45:58;;;;;;;9.57;6.77;;;;;;;;;;5011799;28;20213;-55
2022/03/09 07:48:24;;;;;;;9.03;6.80;;;;;;;;;;5005609;28;20251;-55
2022/03/09 07:50:50;;;;;;;9.30;6.80;;;;;;;;;;5005936;28;20213;-55
2022/03/09 07:53:16;;;;;;;9.87;7.43;;;;;;;;;;5005561;28;20259;-55
2022/03/09 07:55:43;;;;;;;9.30;6.87;;;;;;;;;;5010031;28;20812;-54
2022/03/09 07:58:09;;;;;;;13.93;7.40;;;;;;;;;;5011795;28;20199;-55
2022/03/09 08:00:35;;;;;;;10.83;6.97;;;;;;;;;;5005204;28;20208;-55
2022/03/09 08:03:01;;;;;;;15.67;6.80;;;;;;;;;;5014341;28;20247;-55
2022/03/09 08:05:27;;;;;;;10.47;7.27;;;;;;;;;;5009122;28;20221;-55
2022/03/09 08:07:53;;;;;;;10.07;6.17;;;;;;;;;;5010908;28;20395;-55
2022/03/09 08:10:19;;;;;;;10.07;6.93;;;;;;;;;;5000182;28;20354;-54
2022/03/09 08:12:45;;;;;;;12.60;6.57;;;;;;;;;;5008176;28;20279;-55
2022/03/09 08:15:11;;;;;;;11.90;6.80;;;;;;;;;;5015230;28;20197;-55
2022/03/09 08:17:37;;;;;;;7.97;5.93;;;;;;;;;;5012114;28;20693;-55
2022/03/09 08:20:04;;;;;;;12.13;6.43;;;;;;;;;;5001836;28;20197;-55
2022/03/09 08:22:30;;;;;;;7.77;6.33;;;;;;;;;;5004165;28;20215;-55
2022/03/09 08:24:56;;;;;;;9.00;7.37;;;;;;;;;;5000447;28;20240;-55
2022/03/09 08:27:21;;;;;;;9.83;6.93;;;;;;;;;;5002016;28;20211;-55
2022/03/09 08:29:48;;;;;;;9.70;7.00;;;;;;;;;;5000334;28;20559;-55
2022/03/09 08:32:14;;;;;;;10.63;7.10;;;;;;;;;;5003623;28;20869;-55
2022/03/09 08:34:40;;;;;;;10.43;7.20;;;;;;;;;;5008726;28;20440;-55
2022/03/09 08:37:06;;;;;;;9.80;6.90;;;;;;;;;;5004585;28;20208;-55
2022/03/09 08:39:32;;;;;;;13.80;6.80;;;;;;;;;;5005467;28;20230;-55
2022/03/09 08:41:58;;;;;;;8.67;6.57;;;;;;;;;;5007891;28;20205;-55
2022/03/09 08:44:24;;;;;;;8.37;7.10;;;;;;;;;;5005704;28;20213;-55
2022/03/09 08:46:53;;;;;;;11.07;6.73;;;;;;;;;;5003263;28;20194;-55
2022/03/09 08:49:18;;;;;;;10.73;7.17;;;;;;;;;;5008626;28;20224;-54
2022/03/09 08:51:44;;;;;;;14.60;6.63;;;;;;;;;;5006791;28;20256;-55
2022/03/09 08:54:10;;;;;;;11.43;6.53;;;;;;;;;;5001128;28;20200;-55
2022/03/09 08:56:36;;;;;;;9.70;6.67;;;;;;;;;;4992318;28;20280;-55
2022/03/09 08:59:02;;;;;;;9.00;6.97;;;;;;;;;;5002111;28;20225;-55
2022/03/09 09:01:28;;;;;;;10.13;6.63;;;;;;;;;;5007271;28;20200;-55
2022/03/09 09:03:54;;;;;;;7.73;6.60;;;;;;;;;;4997085;28;20204;-55
2022/03/09 09:06:20;;;;;;;9.53;6.87;;;;;;;;;;4996783;28;20196;-55
2022/03/09 09:08:46;;;;;;;7.77;6.90;;;;;;;;;;5004268;28;20282;-55
2022/03/09 09:11:12;;;;;;;8.57;7.00;;;;;;;;;;5004000;28;20558;-55
2022/03/09 09:13:38;;;;;;;10.90;7.27;;;;;;;;;;4999303;28;20798;-55
2022/03/09 09:16:04;;;;;;;7.00;6.30;;;;;;;;;;4998182;28;20193;-55
2022/03/09 09:18:30;;;;;;;9.83;6.70;;;;;;;;;;5010132;28;20193;-55
2022/03/09 09:20:57;;;;;;;9.13;7.10;;;;;;;;;;5004372;28;20205;-55
2022/03/09 09:23:23;;;;;;;11.33;7.80;;;;;;;;;;5003296;28;20282;-55
2022/03/09 09:25:49;;;;;;;8.10;7.17;;;;;;;;;;5006861;28;20237;-55
2022/03/09 09:28:15;;;;;;;7.67;6.97;;;;;;;;;;5007825;28;20201;-56
2022/03/09 09:30:41;;;;;;;9.20;7.20;;;;;;;;;;5004164;28;20217;-56
2022/03/09 09:33:07;;;;;;;10.57;7.47;;;;;;;;;;5000537;28;20198;-56
2022/03/09 09:35:33;;;;;;;10.07;7.63;;;;;;;;;;5006146;28;20223;-56
2022/03/09 09:38:06;;;;;;;9.57;8.07;;;;;;;;;;5011934;28;20247;-55
2022/03/09 09:40:36;;;;;;;10.20;7.50;;;;;;;;;;5008700;28;20223;-56
2022/03/09 09:43:07;;;;;;;13.37;8.03;;;;;;;;;;5012532;28;20292;-56
2022/03/09 09:45:34;;;;;;;8.47;7.60;;;;;;;;;;5010023;28;20287;-55
2022/03/09 09:48:00;;;;;;;10.20;7.60;;;;;;;;;;5007325;28;20192;-55
2022/03/09 09:50:26;;;;;;;10.20;8.23;;;;;;;;;;5001855;28;20267;-56
2022/03/09 09:52:52;;;;;;;12.77;8.60;;;;;;;;;;5006781;28;20280;-56
2022/03/09 09:55:18;;;;;;;11.33;8.97;;;;;;;;;;5010119;28;20221;-56
2022/03/09 09:57:46;;;;;;;10.80;7.90;;;;;;;;;;5008888;28;20202;-56
2022/03/09 10:00:12;;;;;;;9.67;8.67;;;;;;;;;;5008234;28;20189;-56
2022/03/09 10:02:40;;;;;;;12.53;8.23;;;;;;;;;;5002021;28;20590;-56
2022/03/09 10:05:06;;;;;;;10.77;8.50;;;;;;;;;;5010065;28;20628;-56
2022/03/09 10:07:32;;;;;;;11.63;8.67;;;;;;;;;;5008530;28;20205;-56
2022/03/09 10:09:58;;;;;;;9.47;8.03;;;;;;;;;;5007347;28;20226;-56
2022/03/09 10:12:28;;;;;;;11.53;8.60;;;;;;;;;;5009211;28;20331;-56
2022/03/09 10:14:54;;;;;;;8.57;7.67;;;;;;;;;;5009267;28;20652;-56
2022/03/09 10:17:24;;;;;;;10.07;8.00;;;;;;;;;;5006265;28;20193;-55
2022/03/09 10:19:51;;;;;;;9.00;8.17;;;;;;;;;;5000600;28;20201;-56
2022/03/09 10:22:22;;;;;;;9.50;7.93;;;;;;;;;;5004568;28;20200;-55
2022/03/09 10:24:48;;;;;;;9.83;8.07;;;;;;;;;;4998185;28;20236;-56
2022/03/09 10:27:21;;;;;;;12.13;8.63;;;;;;;;;;5005926;28;20207;-56
2022/03/09 10:29:54;;;;;;;11.60;8.80;;;;;;;;;;5004195;28;20303;-56
2022/03/09 10:32:20;;;;;;;9.10;8.20;;;;;;;;;;5009204;28;20185;-56
2022/03/09 10:34:47;;;;;;;12.30;8.05;;;;;;;;;;5010625;28;20704;-56
2022/03/09 10:37:13;;;;;;;13.27;7.97;;;;;;;;;;5011775;28;20737;-56
2022/03/09 10:39:39;;;;;;;9.50;7.88;;;;;;;;;;5005571;28;20202;-56
2022/03/09 10:42:07;;;;;;;12.90;8.75;;;;;;;;;;5008928;28;20184;-56
2022/03/09 10:44:46;;;;;;;9.68;8.18;;;;;;;;;;5004961;28;20217;-56
2022/03/09 10:47:12;;;;;;;11.68;8.65;;;;;;;;;;5009365;28;20184;-56
2022/03/09 10:49:38;;;;;;;11.73;7.57;;;;;;;;;;5009637;28;20209;-56
2022/03/09 10:52:04;;;;;;;10.75;8.52;;;;;;;;;;5006300;28;20197;-56
2022/03/09 10:54:32;;;;;;;8.77;7.40;;;;;;;;;;5008036;28;20284;-56
2022/03/09 10:57:13;;;;;;;9.32;8.13;;;;;;;;;;5008221;28;20594;-56
2022/03/09 10:59:43;;;;;;;11.43;8.52;;;;;;;;;;5004712;28;21239;-56
2022/03/09 11:02:10;;;;;;;11.10;8.00;;;;;;;;;;5005972;28;20201;-56
2022/03/09 11:04:36;;;;;;;9.95;8.45;;;;;;;;;;5006222;28;20216;-56
2022/03/09 11:07:02;;;;;;;9.98;8.07;;;;;;;;;;5006793;28;20220;-56
2022/03/09 11:09:28;;;;;;;9.32;7.68;;;;;;;;;;5006014;28;20844;-56
2022/03/09 11:11:55;;;;;;;11.32;8.18;;;;;;;;;;4998466;28;20989;-56
2022/03/09 11:14:21;;;;;;;8.68;7.80;;;;;;;;;;5004627;28;20677;-56
2022/03/09 11:16:47;;;;;;;9.85;8.85;;;;;;;;;;5008078;28;20503;-56
2022/03/09 11:19:13;;;;;;;9.40;7.60;;;;;;;;;;5010136;28;20193;-56
2022/03/09 11:21:39;;;;;;;12.85;7.72;;;;;;;;;;5002820;28;20867;-56
2022/03/09 11:24:12;;;;;;;8.57;7.72;;;;;;;;;;5008906;28;20200;-56
2022/03/09 11:26:40;;;;;;;8.57;7.68;;;;;;;;;;5007181;28;20213;-56
2022/03/09 11:29:07;;;;;;;8.30;7.55;;;;;;;;;;5007677;28;20572;-56
2022/03/09 11:31:49;;;;;;;8.93;8.02;;;;;;;;;;4993442;28;20239;-56
2022/03/09 11:34:31;;;;;;;7.97;5.15;;;;;;;;;;5005846;28;20670;-56
2022/03/09 11:36:58;;;;;;;5.57;5.07;;;;;;;;;;5006424;28;20201;-56
2022/03/09 11:39:24;;;;;;;5.63;5.07;;;;;;;;;;5013690;28;20197;-56
2022/03/09 11:41:55;;;;;;;7.28;4.35;;;;;;;;;;5007311;28;20232;-57
2022/03/09 11:44:29;;;;;;;7.03;5.30;;;;;;;;;;5011355;28;20705;-57
2022/03/09 11:47:01;;;;;;;5.40;4.75;;;;;;;;;;5010075;28;20658;-57
2022/03/09 11:49:36;;;;;;;5.07;4.60;;;;;;;;;;5013556;28;20209;-57
2022/03/09 11:52:06;;;;;;;6.03;5.30;;;;;;;;;;5014449;28;20189;-57
2022/03/09 11:54:49;;;;;;;5.93;4.70;;;;;;;;;;5006563;28;20657;-57
2022/03/09 11:57:15;;;;;;;7.80;5.63;;;;;;;;;;5006487;28;20201;-56
2022/03/09 12:00:02;;;;;;;5.82;4.22;;;;;;;;;;5008181;28;20276;-57
2022/03/09 12:02:39;;;;;;;5.50;4.40;;;;;;;;;;5011486;28;20216;-56
2022/03/09 12:05:05;;;;;;;7.03;4.53;;;;;;;;;;5009412;28;20244;-56
2022/03/09 12:07:33;;;;;;;7.65;5.40;;;;;;;;;;5016000;28;20206;-57
2022/03/09 12:10:04;;;;;;;7.32;5.38;;;;;;;;;;5010871;28;20226;-56
2022/03/09 12:12:32;;;;;;;19.90;6.35;;;;;;;;;;5007097;28;20216;-56
2022/03/09 12:15:02;;;;;;;6.15;4.82;;;;;;;;;;5004525;28;20288;-57
2022/03/09 12:17:32;;;;;;;7.57;4.95;;;;;;;;;;5004075;28;20180;-57
2022/03/09 12:20:19;;;;;;;10.10;5.88;;;;;;;;;;5008684;28;20332;-57
2022/03/09 12:23:00;;;;;;;9.90;5.20;;;;;;;;;;5000301;28;20225;-57
2022/03/09 12:25:46;;;;;;;8.95;4.70;;;;;;;;;;5009907;28;20250;-57
2022/03/09 12:28:28;;;;;;;8.90;5.60;;;;;;;;;;5008148;28;20332;-57
2022/03/09 12:30:57;;;;;;;8.82;5.38;;;;;;;;;;5006162;28;20220;-57
2022/03/09 12:33:27;;;;;;;7.65;5.70;;;;;;;;;;5009395;28;20606;-56
2022/03/09 12:35:53;;;;;;;8.02;5.50;;;;;;;;;;5005268;28;20617;-56
2022/03/09 12:38:19;;;;;;;10.68;5.63;;;;;;;;;;5011263;28;20281;-56
2022/03/09 12:40:45;;;;;;;8.05;4.93;;;;;;;;;;5009202;28;20523;-56
2022/03/09 12:43:13;;;;;;;7.80;5.15;;;;;;;;;;5005729;28;20274;-57
2022/03/09 12:45:55;;;;;;;9.90;6.20;;;;;;;;;;5009536;28;20200;-57
2022/03/09 12:48:21;;;;;;;8.82;5.72;;;;;;;;;;5010476;28;20433;-56
2022/03/09 12:50:47;;;;;;;5.60;5.05;;;;;;;;;;5005262;28;20263;-57
2022/03/09 12:53:18;;;;;;;8.45;5.53;;;;;;;;;;5002745;28;20221;-57
2022/03/09 12:55:44;;;;;;;7.63;5.43;;;;;;;;;;5000456;28;20240;-57
2022/03/09 12:58:10;;;;;;;8.13;5.80;;;;;;;;;;5001715;28;21755;-57
2022/03/09 13:00:36;;;;;;;6.63;5.28;;;;;;;;;;4998059;28;20253;-56
2022/03/09 13:03:02;;;;;;;6.80;5.63;;;;;;;;;;5001192;28;20741;-56
2022/03/09 13:05:29;;;;;;;6.85;5.80;;;;;;;;;;4999286;28;20216;-57
2022/03/09 13:07:55;;;;;;;7.40;5.50;;;;;;;;;;4999778;28;20197;-57
2022/03/09 13:10:21;;;;;;;6.30;5.50;;;;;;;;;;5000863;28;20212;-56
2022/03/09 13:12:49;;;;;;;6.57;5.65;;;;;;;;;;5004363;28;20200;-56
2022/03/09 13:15:15;;;;;;;7.43;5.63;;;;;;;;;;5007271;28;20659;-57
2022/03/09 13:17:47;;;;;;;7.43;5.72;;;;;;;;;;5004892;28;20197;-56
2022/03/09 13:20:13;;;;;;;7.40;6.03;;;;;;;;;;5007705;28;20657;-56
2022/03/09 13:22:46;;;;;;;7.35;5.30;;;;;;;;;;4998215;28;20200;-56
2022/03/09 13:25:12;;;;;;;6.75;6.15;;;;;;;;;;4996569;28;20698;-56
2022/03/09 13:27:38;;;;;;;6.70;6.10;;;;;;;;;;4993761;28;20194;-56
2022/03/09 13:30:14;;;;;;;6.25;5.57;;;;;;;;;;5000326;28;20216;-56
2022/03/09 13:32:40;;;;;;;9.15;6.40;;;;;;;;;;4997099;28;20201;-56
2022/03/09 13:35:07;;;;;;;52.55;12.10;;;;;;;;;;4997484;28;20194;-60
2022/03/09 13:37:33;;;;;;;7.05;5.55;;;;;;;;;;4984723;28;20201;-56
2022/03/09 13:40:01;;;;;;;6.47;5.88;;;;;;;;;;4984864;28;20237;-56
2022/03/09 13:42:37;;;;;;;8.00;5.50;;;;;;;;;;4996660;28;20200;-56
2022/03/09 13:45:07;;;;;;;6.47;5.38;;;;;;;;;;5000395;28;20544;-56
2022/03/09 13:47:44;;;;;;;7.03;5.85;;;;;;;;;;5005904;28;20961;-56
2022/03/09 13:50:16;;;;;;;6.38;5.70;;;;;;;;;;5002236;28;20694;-56
2022/03/09 13:52:42;;;;;;;8.05;5.82;;;;;;;;;;5001121;28;20586;-56
2022/03/09 13:55:08;;;;;;;9.55;7.40;;;;;;;;;;5000231;28;20572;-56
2022/03/09 13:57:38;;;;;;;6.63;5.72;;;;;;;;;;4998829;28;20212;-56
2022/03/09 14:00:25;;;;;;;5.97;5.47;;;;;;;;;;5004727;28;20273;-56
2022/03/09 14:02:55;;;;;;;5.68;5.18;;;;;;;;;;5000768;28;21136;-56
2022/03/09 14:05:30;;;;;;;7.90;5.65;;;;;;;;;;5006869;28;20734;-56
2022/03/09 14:07:57;;;;;;;5.75;5.25;;;;;;;;;;5004416;28;20208;-56
2022/03/09 14:10:24;;;;;;;7.55;5.60;;;;;;;;;;5010111;28;21249;-56
2022/03/09 14:12:50;;;;;;;6.32;5.72;;;;;;;;;;5009369;28;20200;-56
2022/03/09 14:15:16;;;;;;;6.55;5.72;;;;;;;;;;5012220;28;20190;-56
2022/03/09 14:17:42;;;;;;;6.78;6.07;;;;;;;;;;5008666;28;20193;-56
2022/03/09 14:20:10;;;;;;;9.00;6.68;;;;;;;;;;5010448;28;20200;-56
2022/03/09 14:22:43;;;;;;;9.35;7.40;;;;;;;;;;5004638;28;20196;-56
2022/03/09 14:25:09;;;;;;;29.52;8.55;;;;;;;;;;5007569;28;20319;-56
2022/03/09 14:27:35;;;;;;;7.38;6.68;;;;;;;;;;5010234;28;20197;-56
2022/03/09 14:30:03;;;;;;;14.82;8.18;;;;;;;;;;5008995;28;20948;-56
2022/03/09 14:32:29;;;;;;;10.50;8.40;;;;;;;;;;5005226;28;20287;-56
2022/03/09 14:34:55;;;;;;;9.07;8.15;;;;;;;;;;5004820;28;20199;-56